createdAt,value
2023-01-31T00:00:55.748Z,100.00
2023-01-31T00:03:26.449Z,100.00
2023-01-31T00:05:56.797Z,100.00
2023-01-31T00:08:29.863Z,100.00
2023-01-31T00:11:02.436Z,100.00
2023-01-31T00:13:33.041Z,100.00
2023-01-31T00:16:03.677Z,100.00
2023-01-31T00:18:34.882Z,100.00
2023-01-31T00:21:11.118Z,100.00
2023-01-31T00:23:46.234Z,100.00
2023-01-31T00:26:20.366Z,100.00
2023-01-31T00:28:52.799Z,100.00
2023-01-31T00:31:24.976Z,100.00
2023-01-31T00:33:56.995Z,100.00
2023-01-31T00:36:30.281Z,100.00
2023-01-31T00:39:06.840Z,100.00
2023-01-31T00:41:39.426Z,100.00
2023-01-31T00:44:10.548Z,100.00
2023-01-31T00:46:42.121Z,100.00
2023-01-31T00:49:12.634Z,100.00
2023-01-31T00:51:43.067Z,100.00
2023-01-31T00:54:16.054Z,100.00
2023-01-31T00:56:46.434Z,100.00
2023-01-31T00:59:17.008Z,100.00
2023-01-31T01:01:47.620Z,100.00
2023-01-31T01:04:18.106Z,100.00
2023-01-31T01:06:50.531Z,100.00
2023-01-31T01:09:23.718Z,100.00
2023-01-31T01:11:54.605Z,100.00
2023-01-31T01:14:25.202Z,100.00
2023-01-31T01:16:58.430Z,100.00
2023-01-31T01:19:29.149Z,100.00
2023-01-31T01:21:59.582Z,100.00
2023-01-31T01:24:32.984Z,100.00
2023-01-31T01:27:06.701Z,100.00
2023-01-31T01:29:37.181Z,100.00
2023-01-31T01:32:08.756Z,100.00
2023-01-31T01:34:39.383Z,100.00
2023-01-31T01:37:20.162Z,100.00
2023-01-31T01:39:54.207Z,100.00
2023-01-31T01:42:27.747Z,100.00
2023-01-31T01:45:00.629Z,100.00
2023-01-31T01:47:40.400Z,100.00
2023-01-31T01:50:17.724Z,100.00
2023-01-31T01:52:53.851Z,100.00
2023-01-31T01:55:36.351Z,100.00
2023-01-31T01:58:14.094Z,100.00
2023-01-31T02:00:46.061Z,100.00
2023-01-31T02:03:18.100Z,100.00
2023-01-31T02:05:52.632Z,100.00
2023-01-31T02:08:26.783Z,100.00
2023-01-31T02:11:05.710Z,100.00
2023-01-31T02:13:36.476Z,100.00
2023-01-31T02:16:07.322Z,100.00
2023-01-31T02:18:38.119Z,100.00
2023-01-31T02:22:01.321Z,100.00
2023-01-31T02:25:22.702Z,100.00
2023-01-31T02:28:40.393Z,100.00
2023-01-31T02:31:55.086Z,100.00
2023-01-31T02:34:40.643Z,100.00
2023-01-31T02:37:23.382Z,100.00
2023-01-31T02:40:04.375Z,100.00
2023-01-31T02:42:48.966Z,100.00
2023-01-31T02:45:27.888Z,100.00
2023-01-31T02:48:12.945Z,100.00
2023-01-31T02:51:00.880Z,100.00
2023-01-31T02:53:37.573Z,100.00
2023-01-31T02:56:15.068Z,100.00
2023-01-31T02:58:49.490Z,100.00
2023-01-31T03:01:28.065Z,100.00
2023-01-31T03:04:01.782Z,100.00
2023-01-31T03:07:00.318Z,100.00
2023-01-31T03:09:44.332Z,100.00
2023-01-31T03:12:41.333Z,100.00
2023-01-31T03:15:56.780Z,100.00
2023-01-31T03:18:32.686Z,100.00
2023-01-31T03:21:11.430Z,100.00
2023-01-31T03:23:47.230Z,100.00
2023-01-31T03:26:20.391Z,100.00
2023-01-31T03:28:57.254Z,100.00
2023-01-31T03:31:33.047Z,100.00
2023-01-31T03:34:11.542Z,100.00
2023-01-31T03:36:50.070Z,100.00
2023-01-31T03:39:41.933Z,100.00
2023-01-31T03:42:22.507Z,100.00
2023-01-31T03:45:02.015Z,100.00
2023-01-31T03:47:38.792Z,100.00
2023-01-31T03:50:17.535Z,100.00
2023-01-31T03:52:55.529Z,99.77
2023-01-31T03:55:38.759Z,99.67
2023-01-31T03:58:11.554Z,98.95
2023-01-31T04:00:46.547Z,98.59
2023-01-31T04:03:23.796Z,98.25
2023-01-31T04:05:54.381Z,97.54
2023-01-31T04:08:25.652Z,97.44
2023-01-31T04:11:07.927Z,97.49
2023-01-31T04:13:38.508Z,97.24
2023-01-31T04:16:11.259Z,96.69
2023-01-31T04:18:41.684Z,96.75
2023-01-31T04:21:12.107Z,96.60
2023-01-31T04:23:42.408Z,96.45
2023-01-31T04:26:15.323Z,96.75
2023-01-31T04:28:45.662Z,96.65
2023-01-31T04:31:16.094Z,96.88
2023-01-31T04:33:46.587Z,96.56
2023-01-31T04:36:16.959Z,96.53
2023-01-31T04:38:47.292Z,96.51
2023-01-31T04:41:20.430Z,96.51
2023-01-31T04:43:50.765Z,96.74
2023-01-31T04:46:21.514Z,96.80
2023-01-31T04:48:51.948Z,96.47
2023-01-31T04:51:22.422Z,97.00
2023-01-31T04:53:52.732Z,96.55
2023-01-31T04:56:25.819Z,96.90
2023-01-31T04:58:56.139Z,98.01
2023-01-31T05:01:26.894Z,98.51
2023-01-31T05:03:57.312Z,98.73
2023-01-31T05:06:27.628Z,98.53
2023-01-31T05:09:01.469Z,98.55
2023-01-31T05:11:34.446Z,98.95
2023-01-31T05:14:04.945Z,99.84
2023-01-31T05:16:35.317Z,100.00
2023-01-31T05:19:05.729Z,100.00
2023-01-31T05:21:55.027Z,100.00
2023-01-31T05:24:25.582Z,100.00
2023-01-31T05:27:01.310Z,100.00
2023-01-31T05:29:34.089Z,100.00
2023-01-31T05:32:05.998Z,100.00
2023-01-31T05:34:36.298Z,99.86
2023-01-31T05:37:07.177Z,99.27
2023-01-31T05:39:37.621Z,98.31
2023-01-31T05:42:10.578Z,97.99
2023-01-31T05:44:40.969Z,98.06
2023-01-31T05:47:11.309Z,97.64
2023-01-31T05:49:41.796Z,97.39
2023-01-31T05:52:12.108Z,97.17
2023-01-31T05:54:42.375Z,97.42
2023-01-31T05:57:15.978Z,97.62
2023-01-31T05:59:46.415Z,97.58
2023-01-31T06:02:17.087Z,97.33
2023-01-31T06:04:47.400Z,96.65
2023-01-31T06:07:17.847Z,96.95
2023-01-31T06:09:48.500Z,96.52
2023-01-31T06:12:21.497Z,96.71
2023-01-31T06:15:19.130Z,97.12
2023-01-31T06:17:49.709Z,96.70
2023-01-31T06:20:20.360Z,96.28
2023-01-31T06:22:50.695Z,96.15
2023-01-31T06:25:21.657Z,96.22
2023-01-31T06:27:54.749Z,95.64
2023-01-31T06:30:25.338Z,95.84
2023-01-31T06:32:56.411Z,95.29
2023-01-31T06:35:26.935Z,95.42
2023-01-31T06:37:58.716Z,95.81
2023-01-31T06:40:29.388Z,95.20
2023-01-31T06:43:02.849Z,94.60
2023-01-31T06:45:33.345Z,94.33
2023-01-31T06:48:03.620Z,94.37
2023-01-31T06:50:34.026Z,93.93
2023-01-31T06:53:04.280Z,93.43
2023-01-31T06:55:34.616Z,92.99
2023-01-31T06:58:07.511Z,92.27
2023-01-31T07:00:37.885Z,92.33
2023-01-31T07:03:08.201Z,92.59
2023-01-31T07:05:38.543Z,92.52
2023-01-31T07:08:09.300Z,92.37
2023-01-31T07:10:39.811Z,91.10
2023-01-31T07:13:12.842Z,90.60
2023-01-31T07:15:43.236Z,90.48
2023-01-31T07:18:13.522Z,89.76
2023-01-31T07:20:43.921Z,88.68
2023-01-31T07:23:14.207Z,87.45
2023-01-31T07:25:44.564Z,86.66
2023-01-31T07:28:17.740Z,85.62
2023-01-31T07:30:48.665Z,86.09
2023-01-31T07:33:19.096Z,85.57
2023-01-31T07:35:49.729Z,84.49
2023-01-31T07:38:20.205Z,83.78
2023-01-31T07:40:50.452Z,82.18
2023-01-31T07:43:23.788Z,82.25
2023-01-31T07:45:54.125Z,82.45
2023-01-31T07:48:24.785Z,81.33
2023-01-31T07:50:56.300Z,81.01
2023-01-31T07:53:26.667Z,80.20
2023-01-31T07:55:57.509Z,80.10
2023-01-31T07:58:30.666Z,79.98
2023-01-31T08:01:13.500Z,79.48
2023-01-31T08:03:43.849Z,78.89
2023-01-31T08:06:16.068Z,79.44
2023-01-31T08:08:48.212Z,78.44
2023-01-31T08:11:18.551Z,77.77
2023-01-31T08:13:51.469Z,77.52
2023-01-31T08:16:21.952Z,77.92
2023-01-31T08:18:53.037Z,77.64
2023-01-31T08:21:23.674Z,76.47
2023-01-31T08:23:54.085Z,75.93
2023-01-31T08:26:25.972Z,74.72
2023-01-31T08:29:00.235Z,73.77
2023-01-31T08:31:31.803Z,73.66
2023-01-31T08:34:03.313Z,72.80
2023-01-31T08:36:35.895Z,71.52
2023-01-31T08:39:07.741Z,69.45
2023-01-31T08:41:39.496Z,66.28
2023-01-31T08:44:12.437Z,64.48
2023-01-31T08:46:42.943Z,65.56
2023-01-31T08:49:13.367Z,66.60
2023-01-31T08:51:45.308Z,65.87
2023-01-31T08:54:16.337Z,65.67
2023-01-31T08:56:46.684Z,66.38
2023-01-31T08:59:19.700Z,66.31
2023-01-31T09:01:50.009Z,65.63
2023-01-31T09:04:20.401Z,64.75
2023-01-31T09:06:50.683Z,65.46
2023-01-31T09:09:21.278Z,66.06
2023-01-31T09:11:51.631Z,64.74
2023-01-31T09:14:24.605Z,64.51
2023-01-31T09:16:54.946Z,65.58
2023-01-31T09:19:25.591Z,65.25
2023-01-31T09:21:56.265Z,66.37
2023-01-31T09:24:26.679Z,67.02
2023-01-31T09:26:57.346Z,67.34
2023-01-31T09:29:31.025Z,68.01
2023-01-31T09:32:01.437Z,68.62
2023-01-31T09:34:32.201Z,68.80
2023-01-31T09:37:02.647Z,68.82
2023-01-31T09:39:33.267Z,68.41
2023-01-31T09:42:19.769Z,69.21
2023-01-31T09:45:02.550Z,68.95
2023-01-31T09:47:37.352Z,68.42
2023-01-31T09:50:18.043Z,68.89
2023-01-31T09:52:49.103Z,68.81
2023-01-31T09:55:22.230Z,68.52
2023-01-31T09:58:02.638Z,68.53
2023-01-31T10:00:40.803Z,67.94
2023-01-31T10:03:31.805Z,67.84
2023-01-31T10:06:10.393Z,68.27
2023-01-31T10:08:51.255Z,67.55
2023-01-31T10:11:34.987Z,67.96
2023-01-31T10:14:24.139Z,67.84
2023-01-31T10:17:08.284Z,67.67
2023-01-31T10:19:48.461Z,67.46
2023-01-31T10:22:25.195Z,67.10
2023-01-31T10:25:03.503Z,66.99
2023-01-31T10:27:45.459Z,66.29
2023-01-31T10:30:22.273Z,66.52
2023-01-31T10:33:03.891Z,65.99
2023-01-31T10:35:37.355Z,65.65
2023-01-31T10:38:17.176Z,65.39
2023-01-31T10:40:53.401Z,63.96
2023-01-31T10:43:32.911Z,62.65
2023-01-31T10:46:03.948Z,61.98
2023-01-31T10:48:37.018Z,60.93
2023-01-31T10:51:24.487Z,60.84
2023-01-31T10:54:14.555Z,60.51
2023-01-31T10:56:49.124Z,59.81
2023-01-31T10:59:27.041Z,58.59
2023-01-31T11:01:58.640Z,59.87
2023-01-31T11:04:35.208Z,59.56
2023-01-31T11:07:07.068Z,60.74
2023-01-31T11:09:41.365Z,61.96
2023-01-31T11:12:12.340Z,63.09
2023-01-31T11:14:42.762Z,63.75
2023-01-31T11:17:20.902Z,64.43
2023-01-31T11:19:56.099Z,65.45
2023-01-31T11:22:29.606Z,66.29
2023-01-31T11:25:04.181Z,66.76
2023-01-31T11:27:41.503Z,67.21
2023-01-31T11:30:26.274Z,67.95
2023-01-31T11:32:56.892Z,67.89
2023-01-31T11:35:33.117Z,68.36
2023-01-31T11:38:06.977Z,69.49
2023-01-31T11:40:39.791Z,69.65
2023-01-31T11:43:28.648Z,70.46
2023-01-31T11:46:02.574Z,71.20
2023-01-31T11:48:43.492Z,71.26
2023-01-31T11:51:31.027Z,71.21
2023-01-31T11:54:01.412Z,70.34
2023-01-31T11:56:38.230Z,70.38
2023-01-31T11:59:10.874Z,70.70
2023-01-31T12:01:49.864Z,70.94
2023-01-31T12:04:25.032Z,71.68
2023-01-31T12:07:05.300Z,72.11
2023-01-31T12:09:46.695Z,73.27
2023-01-31T12:12:31.347Z,73.85
2023-01-31T12:15:07.966Z,74.24
2023-01-31T12:17:47.700Z,75.13
2023-01-31T12:20:39.896Z,76.08
2023-01-31T12:23:26.559Z,76.38
2023-01-31T12:26:10.297Z,77.18
2023-01-31T12:28:59.695Z,77.57
2023-01-31T12:31:58.445Z,77.95
2023-01-31T12:35:00.747Z,78.32
2023-01-31T12:37:45.296Z,80.96
2023-01-31T12:40:42.881Z,85.74
2023-01-31T12:43:33.783Z,88.95
2023-01-31T12:46:15.834Z,90.75
2023-01-31T12:49:11.476Z,91.87
2023-01-31T12:51:51.599Z,91.60
2023-01-31T12:54:41.916Z,91.83
2023-01-31T12:57:31.205Z,93.71
2023-01-31T13:00:28.903Z,96.51
2023-01-31T13:03:35.777Z,100.00
2023-01-31T13:06:15.543Z,100.00
2023-01-31T13:09:06.884Z,100.00
2023-01-31T13:11:44.945Z,100.00
2023-01-31T13:14:24.478Z,100.00
2023-01-31T13:17:00.320Z,100.00
2023-01-31T13:19:37.951Z,100.00
2023-01-31T13:22:14.717Z,100.00
2023-01-31T13:24:50.454Z,100.00
2023-01-31T13:27:29.280Z,100.00
2023-01-31T13:30:09.195Z,100.00
2023-01-31T13:32:44.972Z,100.00
2023-01-31T13:35:24.938Z,100.00
2023-01-31T13:38:01.024Z,100.00
2023-01-31T13:40:35.409Z,100.00
2023-01-31T13:43:15.852Z,99.96
2023-01-31T13:45:53.859Z,99.62
2023-01-31T13:48:30.984Z,99.16
2023-01-31T13:51:06.491Z,99.49
2023-01-31T13:53:45.836Z,98.70
2023-01-31T13:56:25.893Z,98.69
2023-01-31T13:58:59.037Z,96.44
2023-01-31T14:01:37.771Z,96.46
2023-01-31T14:04:29.145Z,95.41
2023-01-31T14:07:25.808Z,95.05
2023-01-31T14:10:40.938Z,94.79
2023-01-31T14:13:40.571Z,94.82
2023-01-31T14:16:46.203Z,93.81
2023-01-31T14:20:05.116Z,93.71
2023-01-31T14:22:38.915Z,94.05
2023-01-31T14:25:17.082Z,94.14
2023-01-31T14:28:04.265Z,94.86
2023-01-31T14:30:43.432Z,94.08
2023-01-31T14:33:27.035Z,93.88
2023-01-31T14:36:36.639Z,93.71
2023-01-31T14:39:44.957Z,93.29
2023-01-31T14:43:03.957Z,94.96
2023-01-31T14:46:09.113Z,97.02
2023-01-31T14:49:10.493Z,98.99
2023-01-31T14:52:01.812Z,99.26
2023-01-31T14:55:01.250Z,99.72
2023-01-31T14:57:36.946Z,100.00
2023-01-31T15:00:10.258Z,100.00
2023-01-31T15:02:51.286Z,100.00
2023-01-31T15:05:42.006Z,100.00
2023-01-31T15:08:44.542Z,100.00
2023-01-31T15:11:43.033Z,100.00
2023-01-31T15:14:34.717Z,100.00
2023-01-31T15:17:32.052Z,100.00
2023-01-31T15:20:21.251Z,100.00
2023-01-31T15:22:59.006Z,100.00
2023-01-31T15:25:36.685Z,100.00
2023-01-31T15:28:08.496Z,100.00
2023-01-31T15:30:40.802Z,100.00
2023-01-31T15:33:19.115Z,100.00
2023-01-31T15:35:55.602Z,100.00
2023-01-31T15:38:35.221Z,100.00
2023-01-31T15:41:13.808Z,100.00
2023-01-31T15:43:44.196Z,100.00
2023-01-31T15:46:24.800Z,100.00
2023-01-31T15:48:55.541Z,100.00
2023-01-31T15:51:26.723Z,100.00
2023-01-31T15:54:10.250Z,100.00
2023-01-31T15:56:43.655Z,100.00
2023-01-31T15:59:16.957Z,100.00
2023-01-31T16:01:51.360Z,100.00
2023-01-31T16:04:22.045Z,100.00
2023-01-31T16:06:54.021Z,100.00
2023-01-31T16:09:34.377Z,100.00
2023-01-31T16:12:05.759Z,100.00
2023-01-31T16:14:38.015Z,100.00
2023-01-31T16:17:08.572Z,100.00
2023-01-31T16:19:38.958Z,100.00
2023-01-31T16:22:27.099Z,100.00
2023-01-31T16:25:02.929Z,100.00
2023-01-31T16:27:39.590Z,100.00
2023-01-31T16:30:18.909Z,100.00
2023-01-31T16:32:51.623Z,100.00
2023-01-31T16:35:27.072Z,100.00
2023-01-31T16:38:07.075Z,100.00
2023-01-31T16:40:49.023Z,100.00
2023-01-31T16:43:27.630Z,100.00
2023-01-31T16:46:01.634Z,100.00
2023-01-31T16:48:34.641Z,100.00
2023-01-31T16:51:43.640Z,100.00
2023-01-31T16:54:24.478Z,100.00
2023-01-31T16:57:24.833Z,100.00
2023-01-31T16:59:56.802Z,100.00
2023-01-31T17:02:32.892Z,100.00
2023-01-31T17:05:12.832Z,100.00
2023-01-31T17:07:48.978Z,100.00
2023-01-31T17:10:26.857Z,100.00
2023-01-31T17:13:05.187Z,100.00
2023-01-31T17:15:35.815Z,100.00
2023-01-31T17:18:06.422Z,100.00
2023-01-31T17:20:36.785Z,100.00
2023-01-31T17:23:07.522Z,100.00
2023-01-31T17:25:39.303Z,100.00
2023-01-31T17:28:13.942Z,100.00
2023-01-31T17:30:46.545Z,100.00
2023-01-31T17:33:18.185Z,100.00
2023-01-31T17:35:50.093Z,100.00
2023-01-31T17:38:21.034Z,100.00
2023-01-31T17:40:53.141Z,100.00
2023-01-31T17:43:26.314Z,100.00
2023-01-31T17:45:56.743Z,100.00
2023-01-31T17:48:27.243Z,100.00
2023-01-31T17:50:57.822Z,100.00
2023-01-31T17:53:32.145Z,100.00
2023-01-31T17:56:05.568Z,100.00
2023-01-31T17:58:38.675Z,100.00
2023-01-31T18:01:14.057Z,99.95
2023-01-31T18:03:45.169Z,99.27
2023-01-31T18:06:15.775Z,99.10
2023-01-31T18:08:46.209Z,99.05
2023-01-31T18:11:19.302Z,99.69
2023-01-31T18:13:52.309Z,100.00
2023-01-31T18:16:26.029Z,100.00
2023-01-31T18:18:58.219Z,100.00
2023-01-31T18:21:28.780Z,100.00
2023-01-31T18:24:01.750Z,100.00
2023-01-31T18:26:32.536Z,100.00
2023-01-31T18:29:05.825Z,100.00
2023-01-31T18:31:36.461Z,100.00
2023-01-31T18:34:07.101Z,100.00
2023-01-31T18:36:37.483Z,100.00
2023-01-31T18:39:07.887Z,100.00
2023-01-31T18:41:38.291Z,100.00
2023-01-31T18:44:11.648Z,100.00
2023-01-31T18:46:42.114Z,100.00
2023-01-31T18:49:12.625Z,100.00
2023-01-31T18:51:43.042Z,100.00
2023-01-31T18:54:13.499Z,100.00
2023-01-31T18:56:44.828Z,100.00
2023-01-31T18:59:17.765Z,100.00
2023-01-31T19:01:48.196Z,100.00
2023-01-31T19:04:18.491Z,100.00
2023-01-31T19:06:51.455Z,100.00
2023-01-31T19:09:22.599Z,100.00
2023-01-31T19:11:53.043Z,100.00
2023-01-31T19:14:26.021Z,100.00
2023-01-31T19:16:58.280Z,100.00
2023-01-31T19:19:29.167Z,99.54
2023-01-31T19:21:59.533Z,99.24
2023-01-31T19:24:30.174Z,98.60
2023-01-31T19:27:00.564Z,98.30
2023-01-31T19:29:33.509Z,98.09
2023-01-31T19:32:03.950Z,96.98
2023-01-31T19:34:36.443Z,96.77
2023-01-31T19:37:06.964Z,96.16
2023-01-31T19:39:37.627Z,96.11
2023-01-31T19:42:08.742Z,95.87
2023-01-31T19:44:41.739Z,96.10
2023-01-31T19:47:12.096Z,95.72
2023-01-31T19:49:42.400Z,96.09
2023-01-31T19:52:12.846Z,97.13
2023-01-31T19:54:43.251Z,98.06
2023-01-31T19:57:13.699Z,98.93
2023-01-31T19:59:47.029Z,99.40
2023-01-31T20:02:17.512Z,99.98
2023-01-31T20:04:48.111Z,100.00
2023-01-31T20:07:18.500Z,100.00
2023-01-31T20:09:48.767Z,100.00
2023-01-31T20:12:19.140Z,100.00
2023-01-31T20:14:52.096Z,100.00
2023-01-31T20:17:25.204Z,100.00
2023-01-31T20:19:55.598Z,100.00
2023-01-31T20:22:25.935Z,100.00
2023-01-31T20:24:57.225Z,100.00
2023-01-31T20:27:27.978Z,100.00
2023-01-31T20:30:00.978Z,99.95
2023-01-31T20:32:31.291Z,99.62
2023-01-31T20:35:02.057Z,99.48
2023-01-31T20:37:33.603Z,99.75
2023-01-31T20:40:04.029Z,100.00
2023-01-31T20:42:35.830Z,100.00
2023-01-31T20:45:10.893Z,100.00
2023-01-31T20:47:41.262Z,100.00
2023-01-31T20:50:13.722Z,100.00
2023-01-31T20:52:44.049Z,100.00
2023-01-31T20:55:16.372Z,100.00
2023-01-31T20:57:50.040Z,100.00
2023-01-31T21:00:25.259Z,100.00
2023-01-31T21:02:55.573Z,100.00
2023-01-31T21:05:25.980Z,100.00
2023-01-31T21:07:56.425Z,100.00
2023-01-31T21:10:28.878Z,100.00
2023-01-31T21:12:59.220Z,100.00
2023-01-31T21:15:32.274Z,100.00
2023-01-31T21:18:02.651Z,100.00
2023-01-31T21:20:33.026Z,100.00
2023-01-31T21:23:03.331Z,100.00
2023-01-31T21:25:34.015Z,100.00
2023-01-31T21:28:04.697Z,100.00
2023-01-31T21:30:39.286Z,100.00
2023-01-31T21:33:09.610Z,100.00
2023-01-31T21:35:40.057Z,100.00
2023-01-31T21:38:10.430Z,100.00
2023-01-31T21:40:40.885Z,100.00
2023-01-31T21:43:08.594Z,100.00
2023-01-31T21:45:44.471Z,100.00
2023-01-31T21:48:27.615Z,100.00
2023-01-31T21:50:58.990Z,100.00
2023-01-31T21:53:29.416Z,100.00
2023-01-31T21:56:04.397Z,100.00
2023-01-31T21:58:35.186Z,100.00
2023-01-31T22:01:10.514Z,100.00
2023-01-31T22:03:42.715Z,100.00
2023-01-31T22:06:16.712Z,99.37
2023-01-31T22:08:47.330Z,98.89
2023-01-31T22:11:18.399Z,98.90
2023-01-31T22:13:53.156Z,98.73
2023-01-31T22:16:27.912Z,97.94
2023-01-31T22:18:58.450Z,97.67
2023-01-31T22:21:31.394Z,96.64
2023-01-31T22:24:04.201Z,96.15
2023-01-31T22:26:37.612Z,95.58
2023-01-31T22:29:10.759Z,94.34
2023-01-31T22:31:43.910Z,93.86
2023-01-31T22:34:17.795Z,93.05
2023-01-31T22:36:48.155Z,92.98
2023-01-31T22:39:18.720Z,93.08
2023-01-31T22:41:49.049Z,93.07
2023-01-31T22:44:19.341Z,93.21
2023-01-31T22:46:52.321Z,93.44
2023-01-31T22:49:22.980Z,93.21
2023-01-31T22:51:53.401Z,93.30
2023-01-31T22:54:23.898Z,93.86
2023-01-31T22:56:54.262Z,93.54
2023-01-31T22:59:24.854Z,93.28
2023-01-31T23:01:57.799Z,93.46
2023-01-31T23:04:28.200Z,93.51
2023-01-31T23:06:58.509Z,93.30
2023-01-31T23:09:28.808Z,92.91
2023-01-31T23:11:59.085Z,92.43
2023-01-31T23:14:29.441Z,92.45
2023-01-31T23:17:14.711Z,91.90
2023-01-31T23:19:45.055Z,92.15
2023-01-31T23:22:17.840Z,92.26
2023-01-31T23:24:48.069Z,91.93
2023-01-31T23:27:18.447Z,90.90
2023-01-31T23:29:48.772Z,91.16
2023-01-31T23:32:21.818Z,90.67
2023-01-31T23:34:52.911Z,90.10
2023-01-31T23:37:23.571Z,89.81
2023-01-31T23:39:54.209Z,89.37
2023-01-31T23:42:24.655Z,89.61
2023-01-31T23:44:55.053Z,89.25
2023-01-31T23:47:28.027Z,88.84
2023-01-31T23:49:58.340Z,88.68
2023-01-31T23:52:28.842Z,88.79
2023-01-31T23:54:59.267Z,89.37
2023-01-31T23:57:29.700Z,89.86
